Latest Coastal Weather Observations for Wyndham Airport

IDD60701

Issued at 4:11 pm CST Thursday 28 July 2016 (issued every 10 minutes, with the page automatically refreshed every 10 minutes)

About coastal observations | Map of coastal stations | Coastal observations for NT | Marine services | Other Formats
Station Details ID: 001006 Name: WYNDHAM AERO Lat: -15.51 Lon: 128.15 Height: 3.8 m
Data from the previous 72 hours. | See also: Recent months at Wyndham Airport
Date/Time
CST
Temp
°C
Wind Pressure Rain since
9am
mm
Weather Cloud Vis
km
Sea
Height
m
Swell
Dir  Spd
kts
Gust
kts
hPa Trend Height
m
Period
s
Dir
28/04:00pm 30.6 SE 9 13 1013.9 - 0.0 - - - - - - -
28/03:30pm 30.4 SE 8 16 1014.1 - 0.0 - - - - - - -
28/03:00pm 30.6 SE 11 17 1014.4 - 0.0 - - - - - - -
28/02:30pm 29.6 SE 11 17 1014.9 - 0.0 - - - - - - -
28/02:00pm 28.8 SE 12 17 1015.6 - 0.0 - - - - - - -
28/01:30pm 29.1 SSE 11 16 1016.0 - 0.0 - - - - - - -
28/01:00pm 29.4 SSE 11 15 1016.6 - 0.0 - - - - - - -
28/12:30pm 28.5 SE 11 18 1017.4 - 0.0 - - - - - - -
28/12:00pm 27.9 ESE 12 19 1017.9 - 0.0 - - - - - - -
28/11:30am 27.2 ESE 12 19 1018.5 - 0.0 - - - - - - -
28/11:00am 26.9 ESE 15 19 1018.8 - 0.0 - - - - - - -
28/10:30am 25.8 ESE 14 20 1019.2 - 0.0 - - - - - - -
28/10:00am 25.3 ESE 17 22 1019.3 - 0.0 - - - - - - -
28/09:30am 24.7 ESE 17 21 1019.4 - 0.0 - - - - - - -
28/09:00am 24.0 ESE 13 18 1019.2 - 0.0 - - - - - - -
28/08:30am 23.0 ESE 9 11 1019.0 - 0.0 - - - - - - -
28/08:00am 21.2 SE 7 10 1018.6 - 0.0 - - - - - - -
28/07:30am 21.4 ESE 12 15 1018.2 - 0.0 - - - - - - -
28/07:00am 21.9 ESE 15 19 1017.6 - 0.0 - - - - - - -
28/06:30am 22.3 ESE 15 19 1017.1 - 0.0 - - - - - - -
28/06:00am 22.5 ESE 14 18 1016.8 - 0.0 - - - - - - -
28/05:30am 22.4 ESE 13 17 1016.9 - 0.0 - - - - - - -
28/05:00am 22.3 ESE 13 16 1016.7 - 0.0 - - - - - - -
28/04:30am 22.3 ESE 11 17 1016.6 - 0.0 - - - - - - -
28/04:00am 21.8 ESE 10 13 1016.6 - 0.0 - - - - - - -
28/03:30am 22.4 ESE 11 13 1016.6 - 0.0 - - - - - - -
28/03:00am 23.0 ESE 10 13 1016.6 - 0.0 - - - - - - -
28/02:30am 22.6 ESE 9 11 1016.7 - 0.0 - - - - - - -
28/02:00am 23.0 ESE 9 12 1016.5 - 0.0 - - - - - - -
28/01:30am 24.1 ESE 10 13 1016.5 - 0.0 - - - - - - -
28/01:00am 24.3 ESE 10 13 1016.6 - 0.0 - - - - - - -
28/12:30am 24.6 ESE 10 12 1016.4 - 0.0 - - - - - - -
28/12:00am 25.8 ESE 15 19 1016.3 - 0.0 - - - - - - -
 
Date/Time
CST
Temp
°C
Wind Pressure Rain since
9am
mm
Weather Cloud Vis
km
Sea
Height
m
Swell
Dir  Spd
kts
Gust
kts
hPa Trend Height
m
Period
s
Dir
27/11:30pm 23.4 SE 8 11 1016.1 - 0.0 - - - - - - -
27/11:00pm 23.4 SSE 7 7 1016.1 - 0.0 - - - - - - -
27/10:30pm 24.5 SE 6 7 1015.9 - 0.0 - - - - - - -
27/10:00pm 24.3 ESE 5 6 1015.7 - 0.0 - - - - - - -
27/09:30pm 24.6 E 4 5 1015.6 - 0.0 - - - - - - -
27/09:00pm 24.6 E 4 5 1015.3 - 0.0 - - - - - - -
27/08:30pm 24.1 E 6 6 1015.0 - 0.0 - - - - - - -
27/08:00pm 24.6 SE 8 9 1014.6 - 0.0 - - - - - - -
27/07:30pm 25.6 ESE 8 9 1014.4 - 0.0 - - - - - - -
27/07:00pm 28.5 SE 9 13 1014.1 - 0.0 - - - - - - -
27/06:30pm 29.8 SE 11 14 1013.8 - 0.0 - - - - - - -
27/06:00pm 31.0 ESE 13 16 1013.5 - 0.0 - - - - - - -
27/05:30pm 31.4 SE 14 20 1013.3 - 0.0 - - - - - - -
27/05:00pm 32.0 E 15 20 1013.2 - 0.0 - - - - - - -
27/04:30pm 32.0 ESE 14 20 1013.2 - 0.0 - - - - - - -
27/04:00pm 32.3 E 12 18 1013.1 - 0.0 - - - - - - -
27/03:30pm 32.5 ESE 15 21 1013.2 - 0.0 - - - - - - -
27/03:00pm 32.3 ESE 15 23 1013.5 - 0.0 - - - - - - -
27/02:30pm 31.9 ESE 14 22 1013.8 - 0.0 - - - - - - -
27/02:00pm 31.5 ESE 16 24 1014.2 - 0.0 - - - - - - -
27/01:30pm 31.2 ESE 14 22 1014.8 - 0.0 - - - - - - -
27/01:00pm 31.0 ESE 15 22 1015.4 - 0.0 - - - - - - -
27/12:30pm 30.8 ESE 15 20 1015.9 - 0.0 - - - - - - -
27/12:00pm 30.1 E 16 22 1016.5 - 0.0 - - - - - - -
27/11:30am 29.5 E 17 24 1016.8 - 0.0 - - - - - - -
27/11:00am 28.8 ESE 19 24 1017.1 - 0.0 - - - - - - -
27/10:30am 28.2 E 19 23 1017.2 - 0.0 - - - - - - -
27/10:00am 27.5 E 20 25 1017.0 - 0.0 - - - - - - -
27/09:30am 27.4 E 19 24 1017.0 - 0.0 - - - - - - -
27/09:00am 26.5 ESE 17 21 1016.9 - 0.0 - - - - - - -
27/08:55am 26.1 ESE 17 21 1016.8 - 0.0 - - - - - - -
27/08:30am 24.1 ESE 9 11 1016.5 - 0.0 - - - - - - -
27/08:00am 23.3 ESE 9 11 1016.1 - 0.0 - - - - - - -
27/07:30am 22.6 E 10 11 1015.7 - 0.0 - - - - - - -
27/07:00am 23.0 E 10 11 1015.3 - 0.0 - - - - - - -
27/06:30am 23.4 E 11 12 1014.9 - 0.0 - - - - - - -
27/06:00am 23.6 E 12 13 1014.6 - 0.0 - - - - - - -
27/05:30am 20.8 E 8 11 1014.5 - 0.0 - - - - - - -
27/05:00am 19.0 ESE 5 5 1014.3 - 0.0 - - - - - - -
27/04:30am 19.2 E 6 7 1014.0 - 0.0 - - - - - - -
27/04:00am 17.6 ESE 6 7 1013.8 - 0.0 - - - - - - -
27/03:30am 18.4 ESE 1 5 1013.7 - 0.0 - - - - - - -
27/03:00am 19.0 CALM 0 0 1013.7 - 0.0 - - - - - - -
27/02:30am 21.0 NE 3 4 1013.7 - 0.0 - - - - - - -
27/02:00am 21.0 ENE 2 4 1013.7 - 0.0 - - - - - - -
27/01:30am 22.6 ESE 7 9 1013.9 - 0.0 - - - - - - -
27/01:00am 22.2 SE 8 9 1013.8 - 0.0 - - - - - - -
27/12:30am 21.1 ESE 7 9 1013.7 - 0.0 - - - - - - -
27/12:00am 21.8 SE 5 7 1013.6 - 0.0 - - - - - - -
 
Date/Time
CST
Temp
°C
Wind Pressure Rain since
9am
mm
Weather Cloud Vis
km
Sea
Height
m
Swell
Dir  Spd
kts
Gust
kts
hPa Trend Height
m
Period
s
Dir
26/11:30pm 21.9 ESE 7 8 1013.5 - 0.0 - - - - - - -
26/11:00pm 22.9 E 5 7 1013.6 - 0.0 - - - - - - -
26/10:30pm 23.9 CALM 0 0 1013.6 - 0.0 - - - - - - -
26/10:00pm 24.6 NE 3 6 1013.6 - 0.0 - - - - - - -
26/09:30pm 24.4 ESE 6 6 1013.4 - 0.0 - - - - - - -
26/09:00pm 25.9 ESE 5 7 1013.3 - 0.0 - - - - - - -
26/08:30pm 27.8 E 6 9 1013.0 - 0.0 - - - - - - -
26/08:00pm 28.9 ESE 9 14 1012.6 - 0.0 - - - - - - -
26/07:30pm 31.1 SSE 13 17 1012.0 - 0.0 - - - - - - -
26/07:00pm 31.3 SE 12 16 1011.5 - 0.0 - - - - - - -
26/06:30pm 32.1 SE 9 12 1011.0 - 0.0 - - - - - - -
26/06:00pm 33.4 ESE 9 15 1010.5 - 0.0 - - - - - - -
26/05:30pm 34.2 E 9 15 1010.3 - 0.0 - - - - - - -
26/05:00pm 34.8 ESE 8 11 1010.3 - 0.0 - - - - - - -
26/04:30pm 35.1 ENE 8 11 1010.4 - 0.0 - - - - - - -
26/04:00pm 35.1 ESE 9 14 1010.5 - 0.0 - - - - - - -
26/03:30pm 34.6 E 6 15 1010.6 - 0.0 - - - - - - -
26/03:00pm 33.9 E 6 18 1010.9 - 0.0 - - - - - - -
26/02:30pm 34.3 ENE 7 12 1011.5 - 0.0 - - - - - - -
26/02:00pm 33.5 E 7 11 1011.8 - 0.0 - - - - - - -
26/01:30pm 33.5 ESE 9 14 1012.5 - 0.0 - - - - - - -
26/01:00pm 33.1 E 9 14 1012.9 - 0.0 - - - - - - -
26/12:30pm 32.7 E 9 15 1013.6 - 0.0 - - - - - - -
26/12:00pm 32.9 ESE 11 19 1013.9 - 0.0 - - - - - - -
26/11:30am 31.6 ESE 13 17 1014.2 - 0.0 - - - - - - -
26/11:00am 31.2 E 15 19 1014.6 - 0.0 - - - - - - -
26/10:30am 30.5 ESE 15 19 1014.9 - 0.0 - - - - - - -
26/10:00am 29.9 ESE 14 18 1014.9 - 0.0 - - - - - - -
26/09:30am 29.1 ESE 12 16 1015.0 - 0.0 - - - - - - -
26/09:00am 28.2 ESE 8 12 1014.7 - 0.0 - - - - - - -
26/08:30am 26.2 ESE 7 9 1014.6 - 0.0 - - - - - - -
26/08:00am 24.2 E 9 10 1014.4 - 0.0 - - - - - - -
26/07:30am 22.3 E 9 10 1014.0 - 0.0 - - - - - - -
26/07:00am 22.9 E 9 10 1013.8 - 0.0 - - - - - - -
26/06:30am 22.8 E 9 10 1013.3 - 0.0 - - - - - - -
26/06:00am 23.1 ENE 8 9 1013.2 - 0.0 - - - - - - -
26/05:30am 18.5 E 7 9 1013.1 - 0.0 - - - - - - -
26/05:00am 19.6 E 7 8 1012.9 - 0.0 - - - - - - -
26/04:30am 18.7 SE 3 4 1012.8 - 0.0 - - - - - - -
26/04:00am 17.8 S 4 5 1012.7 - 0.0 - - - - - - -
26/03:30am 19.0 CALM 0 3 1012.7 - 0.0 - - - - - - -
26/03:00am 20.5 E 6 8 1012.8 - 0.0 - - - - - - -
26/02:30am 19.5 E 6 7 1012.8 - 0.0 - - - - - - -
26/02:00am 18.4 E 2 5 1012.7 - 0.0 - - - - - - -
26/01:30am 19.4 CALM 0 0 1012.8 - 0.0 - - - - - - -
26/01:00am 19.4 CALM 0 0 1012.9 - 0.0 - - - - - - -
26/12:30am 20.0 E 1 4 1012.9 - 0.0 - - - - - - -
26/12:00am 21.0 ESE 4 5 1012.9 - 0.0 - - - - - - -
 
Date/Time
CST
Temp
°C
Wind Pressure Rain since
9am
mm
Weather Cloud Vis
km
Sea
Height
m
Swell
Dir  Spd
kts
Gust
kts
hPa Trend Height
m
Period
s
Dir
25/11:30pm 22.3 E 4 5 1013.0 - 0.0 - - - - - - -
25/11:00pm 21.8 ENE 2 4 1013.0 - 0.0 - - - - - - -
25/10:30pm 21.5 SSE 3 4 1012.9 - 0.0 - - - - - - -
25/10:00pm 24.1 SSW 6 7 1012.8 - 0.0 - - - - - - -
25/09:30pm 24.6 S 4 6 1012.6 - 0.0 - - - - - - -
25/09:00pm 25.8 CALM 0 0 1012.4 - 0.0 - - - - - - -
25/08:30pm 26.6 W 3 5 1012.1 - 0.0 - - - - - - -
25/08:00pm 29.2 W 6 8 1011.7 - 0.0 - - - - - - -
25/07:30pm 28.9 NW 4 5 1011.2 - 0.0 - - - - - - -
25/07:00pm 30.4 N 7 11 1010.9 - 0.0 - - - - - - -
25/06:30pm 32.8 E 9 11 1010.6 - 0.0 - - - - - - -
25/06:00pm 34.3 ESE 9 13 1010.3 - 0.0 - - - - - - -

Other Formats:

Comma delimited format used in spreadsheet applications
http://www.bom.gov.au/fwo/IDD60701/IDD60701.95214.axf

JavaScript Object Notation format (JSON) in row-major order
http://www.bom.gov.au/fwo/IDD60701/IDD60701.95214.json